Time;durP1;ratioP1;P1;durP2;ratioP2;P2;SDS_P1;SDS_P2;PMS_P1;PMS_P2;Temp;Humidity;BMP_temperature;BMP_pressure;BME280_temperature;BME280_humidity;BME280_pressure;Samples;Min_cycle;Max_cycle;Signal;HPM_P1;HPM_P2
2022/11/10 00:00:48;;;;;;;28.15;16.93;;;;;;;20.55;46.85;101483.07;1748973;80;21036;-78
2022/11/10 00:03:14;;;;;;;22.80;16.52;;;;;;;20.55;46.84;101484.45;1716794;82;21064;-78
2022/11/10 00:05:41;;;;;;;21.57;16.48;;;;;;;20.56;46.83;101488.86;1714544;81;21064;-78
2022/11/10 00:08:09;;;;;;;25.57;16.85;;;;;;;20.56;46.82;101488.86;1733240;80;21904;-78
2022/11/10 00:10:55;;;;;;;25.55;16.93;;;;;;;20.56;46.80;101487.48;1708609;82;21106;-78
2022/11/10 00:18:15;;;;;;;29.72;16.97;;;;;;;20.55;46.77;101480.30;1689694;83;21084;-78
2022/11/10 00:20:41;;;;;;;25.45;17.20;;;;;;;20.55;46.75;101483.07;1688547;83;21085;-78
2022/11/10 00:23:08;;;;;;;24.45;16.48;;;;;;;20.54;46.74;101483.39;1670868;84;21595;-78
2022/11/10 00:25:34;;;;;;;23.10;16.52;;;;;;;20.53;46.74;101483.95;1677311;85;21028;-78
2022/11/10 00:28:01;;;;;;;24.80;15.98;;;;;;;20.53;46.72;101482.56;1688164;83;21073;-79
2022/11/10 00:30:27;;;;;;;25.37;17.02;;;;;;;20.53;46.72;101478.42;1696133;82;21135;-78
2022/11/10 00:32:53;;;;;;;24.18;16.42;;;;;;;20.53;46.72;101474.83;1683543;83;21114;-78
2022/11/10 00:37:49;;;;;;;24.27;16.87;;;;;;;20.52;46.68;101474.00;1738775;82;21115;-78
2022/11/10 00:40:16;;;;;;;23.57;16.02;;;;;;;20.51;46.66;101470.41;1746481;82;21095;-78
2022/11/10 00:45:09;;;;;;;25.52;16.00;;;;;;;20.51;46.65;101470.41;1663569;82;21098;-78
2022/11/10 00:47:36;;;;;;;23.85;16.27;;;;;;;20.50;46.66;101475.67;1690264;83;21145;-78
2022/11/10 00:50:03;;;;;;;24.20;16.85;;;;;;;20.51;46.65;101466.27;1696344;83;21205;-78
2022/11/10 00:52:29;;;;;;;26.17;16.32;;;;;;;20.51;46.62;101468.20;1693301;82;21081;-78
2022/11/10 00:57:33;;;;;;;24.18;15.65;;;;;;;20.55;46.60;101467.86;1887804;76;22637;-79
2022/11/10 01:00:00;;;;;;;20.88;15.23;;;;;;;20.50;46.59;101467.38;1848805;77;20973;-79
2022/11/10 01:02:27;;;;;;;23.87;15.78;;;;;;;20.50;46.60;101461.03;1830841;77;22623;-79
2022/11/10 01:04:54;;;;;;;22.42;16.52;;;;;;;20.50;46.57;101457.70;1820733;78;21414;-79
2022/11/10 01:07:21;;;;;;;25.88;16.60;;;;;;;20.50;46.58;101462.41;1820090;77;21453;-79
2022/11/10 01:09:47;;;;;;;24.12;16.45;;;;;;;20.49;46.58;101459.41;1847407;77;21088;-79
2022/11/10 01:12:14;;;;;;;20.55;14.78;;;;;;;20.50;46.58;101456.88;1848836;77;20970;-79
2022/11/10 01:14:47;;;;;;;23.83;15.58;;;;;;;20.48;46.52;101457.20;1848497;77;21441;-79
2022/11/10 01:17:13;;;;;;;22.77;16.07;;;;;;;20.48;46.52;101459.97;1848785;77;20930;-79
2022/11/10 01:19:41;;;;;;;24.75;16.32;;;;;;;20.49;46.53;101460.80;1848576;77;21020;-79
2022/11/10 01:22:14;;;;;;;25.55;17.02;;;;;;;20.48;46.49;101464.67;1818113;77;21004;-79
2022/11/10 01:24:40;;;;;;;25.08;16.15;;;;;;;20.49;46.49;101464.94;1809767;78;21408;-79
2022/11/10 01:27:07;;;;;;;20.77;15.75;;;;;;;20.48;46.48;101463.30;1813686;77;21084;-79
2022/11/10 01:29:33;;;;;;;22.60;15.53;;;;;;;20.47;46.46;101454.73;1756364;81;21138;-79
2022/11/10 01:32:00;;;;;;;23.70;16.15;;;;;;;20.46;46.48;101451.70;1827062;78;21111;-79
2022/11/10 01:34:27;;;;;;;25.50;15.88;;;;;;;20.46;46.48;101458.61;1827114;78;21009;-79
2022/11/10 01:37:00;;;;;;;23.10;15.60;;;;;;;20.46;46.47;101450.31;1756750;81;21044;-79
2022/11/10 01:39:26;;;;;;;23.45;16.10;;;;;;;20.46;46.46;101449.76;1827027;78;20968;-79
2022/11/10 01:41:53;;;;;;;23.20;15.63;;;;;;;20.45;46.44;101455.02;1756553;81;21107;-79
2022/11/10 01:44:24;;;;;;;20.82;15.50;;;;;;;20.46;46.43;101453.08;1826802;78;21079;-79
2022/11/10 01:46:50;;;;;;;24.55;15.43;;;;;;;20.44;46.43;101440.97;1757012;81;21005;-79
2022/11/10 01:49:23;;;;;;;23.98;15.03;;;;;;;20.44;46.41;101440.97;1843689;76;21516;-79
2022/11/10 01:52:08;;;;;;;22.32;14.70;;;;;;;20.45;46.42;101437.64;1847329;77;21282;-79
2022/11/10 01:54:42;;;;;;;22.55;15.78;;;;;;;20.44;46.39;101433.23;1848451;77;21483;-79
2022/11/10 01:57:11;;;;;;;24.50;16.25;;;;;;;20.44;46.37;101440.97;1838522;77;21050;-79
2022/11/10 01:59:45;;;;;;;25.37;15.40;;;;;;;20.43;46.36;101442.63;1837068;78;21723;-79
2022/11/10 02:02:22;;;;;;;23.00;15.80;;;;;;;20.43;46.37;101438.48;1836900;77;20959;-79
2022/11/10 02:04:49;;;;;;;22.50;15.25;;;;;;;20.43;46.36;101442.08;1837177;77;21086;-79
2022/11/10 02:07:15;;;;;;;23.32;15.48;;;;;;;20.41;46.33;101440.16;1836802;78;21058;-79
2022/11/10 02:09:42;;;;;;;20.70;15.53;;;;;;;20.42;46.33;101435.45;1836459;77;21027;-79
2022/11/10 02:12:08;;;;;;;24.23;15.83;;;;;;;20.41;46.31;101440.16;1836453;77;21541;-79
2022/11/10 02:14:35;;;;;;;21.27;15.32;;;;;;;20.41;46.31;101441.55;1836279;78;21019;-79
2022/11/10 02:17:02;;;;;;;22.25;15.25;;;;;;;20.41;46.30;101445.69;1780794;78;21105;-79
2022/11/10 02:19:28;;;;;;;26.25;15.98;;;;;;;20.40;46.29;101442.69;1841233;77;21690;-79
2022/11/10 02:21:55;;;;;;;25.57;16.02;;;;;;;20.40;46.30;101446.02;1842359;77;20985;-79
2022/11/10 02:24:21;;;;;;;22.95;15.43;;;;;;;20.40;46.30;101452.36;1842722;77;21075;-79
2022/11/10 02:26:55;;;;;;;24.80;15.72;;;;;;;20.40;46.27;101452.92;1842774;77;21012;-79
2022/11/10 02:29:22;;;;;;;22.25;15.53;;;;;;;20.40;46.29;101449.60;1842300;77;21205;-79
2022/11/10 02:31:49;;;;;;;24.35;16.17;;;;;;;20.40;46.29;101448.77;1842634;77;21048;-79
2022/11/10 02:34:16;;;;;;;21.68;15.38;;;;;;;20.40;46.27;101450.16;1841090;77;21056;-79
2022/11/10 02:36:42;;;;;;;27.48;16.17;;;;;;;20.38;46.25;101450.45;1766119;81;21006;-79
2022/11/10 02:39:09;;;;;;;20.65;14.87;;;;;;;20.39;46.23;101451.27;1840154;77;21053;-79
2022/11/10 02:41:36;;;;;;;20.77;14.23;;;;;;;20.40;46.20;101455.69;1766416;81;21029;-79
2022/11/10 02:44:02;;;;;;;23.80;15.98;;;;;;;20.38;46.20;101457.35;1769910;81;21007;-79
2022/11/10 02:46:29;;;;;;;21.65;14.90;;;;;;;20.38;46.20;101459.30;1770194;81;21429;-79
2022/11/10 02:48:56;;;;;;;23.70;15.93;;;;;;;20.38;46.18;101458.73;1766613;81;21038;-79
2022/11/10 02:51:22;;;;;;;22.25;14.65;;;;;;;20.38;46.17;101461.50;1840477;77;21072;-79
2022/11/10 02:53:49;;;;;;;23.92;15.18;;;;;;;20.39;46.17;101465.09;1840825;77;21045;-80
2022/11/10 02:56:16;;;;;;;25.60;15.63;;;;;;;20.38;46.18;101466.20;1765423;81;21054;-79
2022/11/10 02:58:42;;;;;;;22.20;15.45;;;;;;;20.37;46.18;101459.84;1834901;77;21020;-79
2022/11/10 03:01:09;;;;;;;24.25;15.70;;;;;;;20.38;46.14;101463.44;1761330;81;21026;-79
2022/11/10 03:03:36;;;;;;;21.82;15.15;;;;;;;20.37;46.15;101467.31;1834850;78;21536;-79
2022/11/10 03:06:02;;;;;;;23.75;15.60;;;;;;;20.37;46.15;101464.55;1761331;81;21113;-79
2022/11/10 03:08:29;;;;;;;21.95;14.83;;;;;;;20.36;46.14;101469.28;1767662;80;21049;-79
2022/11/10 03:10:56;;;;;;;21.75;15.58;;;;;;;20.36;46.12;101468.46;1764853;81;21058;-79
2022/11/10 03:13:23;;;;;;;21.15;15.35;;;;;;;20.36;46.12;101466.52;1764885;81;22234;-79
2022/11/10 03:15:50;;;;;;;21.85;14.80;;;;;;;20.36;46.11;101469.28;1765012;80;21054;-79
2022/11/10 03:18:17;;;;;;;24.55;15.65;;;;;;;20.35;46.12;101464.88;1765033;81;21019;-79
2022/11/10 03:20:48;;;;;;;20.92;15.75;;;;;;;20.35;46.09;101460.73;1764790;81;21496;-79
2022/11/10 03:23:17;;;;;;;20.92;15.25;;;;;;;20.35;46.08;101468.20;1765129;81;21071;-79
2022/11/10 03:25:43;;;;;;;23.57;15.78;;;;;;;20.35;46.08;101461.28;1765063;81;21065;-79
2022/11/10 03:28:10;;;;;;;20.17;14.07;;;;;;;20.35;46.06;101469.58;1764771;81;20983;-79
2022/11/10 03:30:37;;;;;;;24.52;15.68;;;;;;;20.34;46.04;101463.78;1765066;80;21146;-79
2022/11/10 03:33:03;;;;;;;21.57;14.47;;;;;;;20.34;46.05;101460.46;1765041;81;21067;-79
2022/11/10 03:35:36;;;;;;;21.93;14.75;;;;;;;20.34;46.01;101467.37;1764811;81;21540;-79
2022/11/10 03:38:02;;;;;;;21.27;15.00;;;;;;;20.33;46.01;101470.42;1765108;80;21073;-79
2022/11/10 03:40:29;;;;;;;19.95;14.87;;;;;;;20.33;45.98;101466.27;1765125;81;21569;-79
2022/11/10 03:42:56;;;;;;;20.27;14.85;;;;;;;20.33;46.00;101463.52;1764804;81;21485;-79
2022/11/10 03:45:22;;;;;;;22.52;14.80;;;;;;;20.32;46.01;101461.34;1767883;79;21006;-79
2022/11/10 03:47:49;;;;;;;24.10;14.73;;;;;;;20.32;46.00;101461.34;1769835;80;21436;-79
2022/11/10 03:50:16;;;;;;;22.40;14.85;;;;;;;20.32;45.99;101463.27;1769406;80;21106;-79
2022/11/10 03:52:43;;;;;;;26.80;15.32;;;;;;;20.32;45.96;101466.03;1769665;81;21097;-79
2022/11/10 03:55:15;;;;;;;22.25;15.30;;;;;;;20.32;45.94;101470.19;1748069;81;22036;-79
2022/11/10 03:57:42;;;;;;;23.95;14.75;;;;;;;20.31;45.95;101469.91;1751969;80;21495;-79
2022/11/10 04:00:10;;;;;;;21.80;14.28;;;;;;;20.32;45.93;101464.66;1714936;81;21493;-79
2022/11/10 04:02:43;;;;;;;21.65;14.47;;;;;;;20.31;45.91;101469.91;1744143;81;20997;-79
2022/11/10 04:10:44;;;;;;;19.62;14.73;;;;;;;20.30;45.89;101472.41;1778043;78;21091;-79
2022/11/10 04:16:01;;;;;;;22.37;15.55;;;;;;;20.28;45.88;101470.49;1778136;80;21017;-79
2022/11/10 04:18:28;;;;;;;21.87;14.75;;;;;;;20.28;45.84;101471.88;1795194;80;21064;-79
2022/11/10 04:20:56;;;;;;;19.17;14.73;;;;;;;20.28;45.78;101474.08;1776546;79;21117;-79
2022/11/10 04:23:28;;;;;;;19.07;14.33;;;;;;;20.28;45.74;101474.08;1802722;78;21040;-79
2022/11/10 04:28:51;;;;;;;22.40;14.68;;;;;;;20.28;45.69;101478.78;1802703;79;21017;-79
2022/11/10 04:31:18;;;;;;;20.10;14.87;;;;;;;20.29;45.64;101471.59;1802987;79;21001;-79
2022/11/10 04:33:45;;;;;;;27.95;14.58;;;;;;;20.33;45.64;101474.56;1802969;79;21095;-78
2022/11/10 04:36:14;;;;;;;20.37;14.87;;;;;;;20.36;45.64;101480.34;1802564;79;21472;-80
2022/11/10 04:38:40;;;;;;;20.68;14.63;;;;;;;20.41;45.61;101483.59;1802726;79;21021;-77
2022/11/10 04:41:07;;;;;;;21.97;13.75;;;;;;;20.45;45.57;101488.78;1802533;78;20985;-77
2022/11/10 04:43:33;;;;;;;20.65;13.03;;;;;;;20.50;45.56;101484.52;1802512;78;20973;-78
2022/11/10 04:46:00;;;;;;;19.73;13.83;;;;;;;20.56;45.50;101481.95;1801477;79;21104;-78
2022/11/10 04:48:26;;;;;;;18.40;13.35;;;;;;;20.64;45.45;101487.35;1760206;79;21536;-78
2022/11/10 04:50:53;;;;;;;18.57;12.18;;;;;;;20.71;45.42;101489.20;1802436;78;21396;-78
2022/11/10 04:53:19;;;;;;;17.60;12.60;;;;;;;20.79;45.37;101487.91;1802984;79;21015;-78
2022/11/10 04:55:46;;;;;;;23.85;13.53;;;;;;;20.87;45.29;101493.34;1802881;79;21041;-78
2022/11/10 04:58:12;;;;;;;17.60;12.25;;;;;;;20.96;45.20;101487.37;1769679;79;21553;-78
2022/11/10 05:00:39;;;;;;;17.45;12.05;;;;;;;21.06;45.09;101487.73;1729599;82;20946;-78
2022/11/10 05:03:07;;;;;;;18.25;12.70;;;;;;;21.15;45.01;101488.15;1800557;79;21041;-77
2022/11/10 05:05:34;;;;;;;19.17;12.47;;;;;;;21.26;44.89;101488.20;1729231;82;21488;-78
2022/11/10 05:08:00;;;;;;;20.15;12.35;;;;;;;21.37;44.78;101495.77;1800255;79;21032;-78
2022/11/10 05:10:27;;;;;;;17.35;11.65;;;;;;;21.46;44.67;101490.34;1800272;79;21472;-77
2022/11/10 05:12:54;;;;;;;18.65;12.07;;;;;;;21.57;44.58;101500.90;1800142;79;21042;-78
2022/11/10 05:15:21;;;;;;;16.90;12.05;;;;;;;21.66;44.46;101494.91;1703140;81;21075;-78
2022/11/10 05:17:50;;;;;;;15.45;11.75;;;;;;;21.76;44.35;101499.42;1800867;79;21020;-78
2022/11/10 05:20:18;;;;;;;16.52;12.13;;;;;;;21.84;44.26;101498.13;1785772;79;21066;-78
2022/11/10 05:25:16;;;;;;;17.57;11.35;;;;;;;22.04;44.03;101511.31;1758179;79;21137;-78
2022/11/10 05:27:43;;;;;;;16.17;11.55;;;;;;;22.11;43.90;101519.45;1786038;79;20999;-78
2022/11/10 05:30:10;;;;;;;16.62;12.03;;;;;;;22.17;43.77;101509.08;1786464;79;21447;-78
2022/11/10 05:32:37;;;;;;;16.23;11.88;;;;;;;22.23;43.65;101513.39;1781295;79;21045;-79
2022/11/10 05:35:04;;;;;;;18.07;12.25;;;;;;;22.29;43.48;101513.52;1723474;82;21739;-80
2022/11/10 05:37:31;;;;;;;21.00;13.78;;;;;;;22.36;43.25;101525.02;1799203;79;20989;-78
2022/11/10 05:39:57;;;;;;;20.27;12.33;;;;;;;22.42;43.03;101518.77;1729495;81;21511;-79
2022/11/10 05:42:24;;;;;;;21.45;12.75;;;;;;;22.44;42.91;101524.27;1724119;81;21108;-79
2022/11/10 05:44:51;;;;;;;23.52;12.85;;;;;;;22.48;42.77;101532.22;1695146;83;21064;-79
2022/11/10 05:47:17;;;;;;;18.57;12.50;;;;;;;22.51;42.64;101534.91;1702583;81;21060;-81
2022/11/10 05:49:43;;;;;;;21.12;13.38;;;;;;;22.53;42.46;101536.83;1779577;79;21095;-77
2022/11/10 05:52:10;;;;;;;24.55;14.00;;;;;;;22.52;42.01;101542.94;1800462;78;21049;-84
2022/11/10 05:54:36;;;;;;;29.12;14.73;;;;;;;22.50;42.15;101541.59;1778655;78;21084;-78
2022/11/10 05:57:04;;;;;;;24.50;13.75;;;;;;;22.49;42.04;101544.92;1793952;77;21080;-81
2022/11/10 05:59:31;;;;;;;30.70;13.90;;;;;;;22.47;41.97;101549.98;1804041;78;21454;-81
2022/11/10 06:01:58;;;;;;;25.43;14.45;;;;;;;22.46;41.75;101547.50;1815679;76;20998;-81
2022/11/10 06:04:28;;;;;;;23.87;13.68;;;;;;;22.45;41.73;101548.06;1815007;76;21393;-80
2022/11/10 06:06:54;;;;;;;30.75;13.70;;;;;;;22.45;41.75;101557.77;1814022;77;21041;-78
2022/11/10 06:09:20;;;;;;;19.82;13.60;;;;;;;22.44;41.65;101552.00;1829736;77;21482;-79
2022/11/10 06:11:47;;;;;;;27.58;15.30;;;;;;;22.42;41.51;101554.25;1812302;76;21558;-79
2022/11/10 06:14:13;;;;;;;26.73;14.70;;;;;;;22.40;41.35;101559.30;1817355;77;21405;-81
2022/11/10 06:16:39;;;;;;;27.50;13.53;;;;;;;22.40;41.33;101565.41;1789020;78;21036;-79
2022/11/10 06:19:06;;;;;;;25.25;13.32;;;;;;;22.42;41.46;101564.52;1797271;78;21104;-80
2022/11/10 06:21:32;;;;;;;22.62;12.47;;;;;;;22.42;41.57;101573.66;1824334;76;21504;-79
2022/11/10 06:23:58;;;;;;;27.22;13.00;;;;;;;22.44;41.69;101575.56;1813087;76;22181;-79
2022/11/10 06:26:25;;;;;;;23.87;12.15;;;;;;;22.46;41.78;101584.38;1804517;76;21037;-79
2022/11/10 06:28:51;;;;;;;27.73;13.32;;;;;;;22.47;41.88;101579.09;1791377;77;21009;-81
2022/11/10 06:31:18;;;;;;;26.93;12.82;;;;;;;22.48;41.97;101577.97;1792980;78;21662;-81
2022/11/10 06:33:44;;;;;;;25.20;13.25;;;;;;;22.50;42.02;101585.39;1809260;77;21497;-83
2022/11/10 06:36:10;;;;;;;23.75;12.85;;;;;;;22.52;41.98;101583.14;1784786;76;22275;-82
2022/11/10 06:38:37;;;;;;;31.62;14.87;;;;;;;22.55;41.88;101582.52;1817619;76;21068;-81
2022/11/10 06:41:09;;;;;;;29.35;13.18;;;;;;;22.59;41.74;101587.69;1812275;76;21081;-80
2022/11/10 06:43:35;;;;;;;31.70;13.78;;;;;;;22.62;41.54;101587.05;1809327;77;21479;-81
2022/11/10 06:46:02;;;;;;;25.97;13.70;;;;;;;22.67;41.44;101588.33;1813725;77;21701;-84
2022/11/10 06:48:28;;;;;;;26.95;14.10;;;;;;;22.71;41.24;101598.26;1808072;77;21150;-84
2022/11/10 06:50:55;;;;;;;32.40;14.00;;;;;;;22.73;41.15;101594.05;1806953;76;21052;-82
2022/11/10 06:53:23;;;;;;;25.20;13.93;;;;;;;22.76;41.14;101600.36;1788821;76;21078;-86
2022/11/10 06:55:51;;;;;;;33.98;13.80;;;;;;;22.79;41.13;101598.11;1808668;76;21074;-84
2022/11/10 06:58:23;;;;;;;27.02;13.50;;;;;;;22.79;40.87;101589.19;1814366;76;21069;-83
2022/11/10 07:00:49;;;;;;;25.77;13.18;;;;;;;22.82;40.75;101594.70;1807832;76;21978;-81
2022/11/10 07:03:17;;;;;;;24.52;13.30;;;;;;;22.84;40.83;101595.19;1745448;80;21069;-86
2022/11/10 07:05:49;;;;;;;31.90;12.73;;;;;;;22.87;40.69;101592.63;1759263;79;21074;-85
2022/11/10 07:08:22;;;;;;;27.48;12.80;;;;;;;22.90;40.81;101602.27;1819313;76;21093;-90
2022/11/10 07:10:53;;;;;;;24.47;12.23;;;;;;;22.94;40.93;101601.33;1815180;76;21120;-85
2022/11/10 07:13:19;;;;;;;22.45;12.05;;;;;;;22.95;40.77;101603.53;1723697;80;21684;-87
2022/11/10 07:16:12;;;;;;;22.42;11.75;;;;;;;22.97;40.68;101608.19;1754127;80;21053;-84
2022/11/10 07:18:47;;;;;;;20.45;11.85;;;;;;;22.97;40.59;101606.23;1811857;77;21045;-85
2022/11/10 07:21:14;;;;;;;21.62;11.88;;;;;;;22.99;40.57;101612.87;1818086;76;21108;-89
2022/11/10 07:23:40;;;;;;;22.32;12.23;;;;;;;23.01;40.50;101623.08;1830980;76;21559;-86
2022/11/10 07:26:07;;;;;;;26.37;13.10;;;;;;;23.01;40.53;101614.75;1822595;76;21979;-86
2022/11/10 07:28:34;;;;;;;28.47;13.10;;;;;;;23.01;40.53;101614.75;1811612;76;21160;-84
2022/11/10 07:31:05;;;;;;;25.02;12.20;;;;;;;23.02;40.49;101605.30;1756749;79;21663;-85
2022/11/10 07:33:31;;;;;;;31.95;12.73;;;;;;;23.03;40.49;101603.61;1767242;79;21051;-85
2022/11/10 07:35:59;;;;;;;22.22;13.03;;;;;;;23.01;40.48;101605.03;1742194;80;21104;-83
2022/11/10 07:38:26;;;;;;;23.77;12.65;;;;;;;23.01;40.46;101601.70;1804148;76;22257;-82
2022/11/10 07:40:52;;;;;;;24.77;12.35;;;;;;;23.01;40.43;101603.65;1810263;76;21037;-83
2022/11/10 07:43:20;;;;;;;24.85;12.68;;;;;;;23.02;40.42;101611.67;1816113;76;22084;-81
2022/11/10 07:45:48;;;;;;;21.87;11.85;;;;;;;23.01;40.39;101607.81;1813148;76;21047;-81
2022/11/10 07:48:15;;;;;;;27.48;13.20;;;;;;;23.01;40.37;101608.64;1812281;76;21108;-82
2022/11/10 07:50:41;;;;;;;31.82;13.98;;;;;;;23.02;40.43;101605.30;1819666;76;21547;-82
2022/11/10 07:53:13;;;;;;;32.10;14.00;;;;;;;23.04;40.78;101601.66;1793759;77;21037;-80
2022/11/10 07:55:42;;;;;;;38.10;14.53;;;;;;;23.03;40.81;101604.17;1822824;76;21018;-84
2022/11/10 07:58:09;;;;;;;33.80;15.40;;;;;;;23.03;41.05;101609.72;1814379;76;21681;-87
2022/11/10 08:00:36;;;;;;;33.02;14.50;;;;;;;23.01;40.94;101618.91;1791285;77;21643;-86
2022/11/10 08:03:04;;;;;;;42.15;15.08;;;;;;;23.02;41.00;101617.22;1825188;76;21422;-87
2022/11/10 08:05:30;;;;;;;35.75;14.55;;;;;;;23.02;40.98;101620.56;1727152;80;21077;-83
2022/11/10 08:07:57;;;;;;;35.17;14.28;;;;;;;23.02;40.90;101617.78;1747040;79;21031;-85
2022/11/10 08:10:23;;;;;;;33.95;13.95;;;;;;;23.03;40.95;101623.59;1750672;79;21093;-81
2022/11/10 08:13:00;;;;;;;38.95;13.60;;;;;;;23.02;41.05;101621.38;1751486;79;21144;-84
2022/11/10 08:15:27;;;;;;;30.97;12.78;;;;;;;23.04;41.14;101626.03;1761234;80;22447;-84
2022/11/10 08:18:09;;;;;;;32.17;13.30;;;;;;;23.05;41.25;101622.13;1764610;78;21080;-84
2022/11/10 08:20:36;;;;;;;26.62;12.55;;;;;;;23.07;41.32;101620.44;1810400;76;21157;-83
2022/11/10 08:23:04;;;;;;;29.23;12.60;;;;;;;23.08;41.43;101617.92;1812630;76;20998;-78
2022/11/10 08:25:32;;;;;;;26.15;12.05;;;;;;;23.09;41.50;101611.22;1811383;76;21068;-86
2022/11/10 08:28:14;;;;;;;24.25;12.58;;;;;;;23.10;41.56;101618.41;1819271;76;21155;-81
2022/11/10 08:30:42;;;;;;;28.32;13.28;;;;;;;23.12;41.63;101621.72;1759269;79;21050;-84
2022/11/10 08:33:10;;;;;;;24.67;11.80;;;;;;;23.14;41.68;101619.42;1823243;76;21606;-84
2022/11/10 08:35:38;;;;;;;27.70;12.70;;;;;;;23.17;41.71;101621.56;1817396;77;21042;-86
2022/11/10 08:38:13;;;;;;;27.42;11.60;;;;;;;23.18;41.77;101621.82;1808439;77;21802;-80
2022/11/10 08:40:39;;;;;;;28.10;12.95;;;;;;;23.19;41.80;101619.30;1808061;77;21312;-81
2022/11/10 08:43:06;;;;;;;26.25;11.93;;;;;;;23.20;41.86;101623.73;1810889;77;21029;-83
2022/11/10 08:45:37;;;;;;;30.57;11.85;;;;;;;23.21;41.90;101624.78;1824310;76;21029;-82
2022/11/10 08:48:06;;;;;;;21.97;11.48;;;;;;;23.23;41.94;101625.87;1813758;76;21701;-80
2022/11/10 08:50:33;;;;;;;28.85;12.65;;;;;;;23.25;42.01;101620.01;1826261;76;21179;-83
2022/11/10 08:53:04;;;;;;;31.33;13.15;;;;;;;23.27;42.21;101619.11;1809284;77;21041;-82
2022/11/10 08:55:31;;;;;;;35.38;14.20;;;;;;;23.31;42.42;101615.95;1752897;80;21124;-83
2022/11/10 08:57:59;;;;;;;29.07;13.10;;;;;;;23.34;42.35;101618.11;1764435;79;21025;-83
2022/11/10 09:00:27;;;;;;;23.47;12.43;;;;;;;23.35;42.21;101621.12;1822576;75;21047;-80
2022/11/10 09:02:55;;;;;;;28.90;13.53;;;;;;;23.36;42.13;101618.03;1819572;76;21072;-82
2022/11/10 09:05:22;;;;;;;29.07;13.08;;;;;;;23.37;42.29;101615.52;1834917;76;21569;-81
2022/11/10 09:07:54;;;;;;;30.35;12.33;;;;;;;23.38;42.42;101615.75;1833503;76;21112;-83
2022/11/10 09:10:27;;;;;;;24.55;12.85;;;;;;;23.38;42.39;101621.30;1827184;76;21050;-82
2022/11/10 09:13:00;;;;;;;23.20;11.68;;;;;;;23.37;42.44;101614.70;1826810;76;20962;-81
2022/11/10 09:15:27;;;;;;;25.68;10.93;;;;;;;23.38;42.50;101616.34;1799170;77;21096;-77
2022/11/10 09:17:58;;;;;;;24.25;12.07;;;;;;;23.36;42.60;101615.26;1820806;76;21050;-81
2022/11/10 09:20:27;;;;;;;34.98;11.95;;;;;;;23.35;42.67;101617.78;1809087;76;21032;-82
2022/11/10 09:22:53;;;;;;;26.93;10.90;;;;;;;23.32;42.72;101615.64;1823127;77;21048;-79
2022/11/10 09:25:26;;;;;;;24.18;10.32;;;;;;;23.31;42.79;101620.94;1811790;76;21107;-78
2022/11/10 09:27:52;;;;;;;22.55;11.75;;;;;;;23.29;42.88;101618.23;1822586;76;21068;-79
2022/11/10 09:30:18;;;;;;;24.60;11.00;;;;;;;23.27;42.92;101621.88;1785784;77;21143;-80
2022/11/10 09:32:45;;;;;;;23.40;11.20;;;;;;;23.26;43.13;101621.62;1821875;76;21083;-82
2022/11/10 09:35:12;;;;;;;24.15;10.80;;;;;;;23.24;43.24;101626.13;1796517;76;21081;-77
2022/11/10 09:37:39;;;;;;;29.35;10.63;;;;;;;23.22;43.71;101622.27;1791654;77;21024;-81
2022/11/10 09:40:06;;;;;;;30.37;10.55;;;;;;;23.21;44.06;101632.31;1822892;76;21052;-79
2022/11/10 09:42:36;;;;;;;23.65;9.25;;;;;;;23.20;44.25;101627.89;1794675;76;21602;-83
2022/11/10 09:45:22;;;;;;;24.67;10.43;;;;;;;23.19;44.48;101628.45;1820955;76;21112;-83
2022/11/10 09:48:18;;;;;;;35.73;11.45;;;;;;;23.16;44.47;101626.32;1846339;76;21067;-80
2022/11/10 09:50:50;;;;;;;31.30;11.35;;;;;;;23.13;44.49;101626.93;1817753;76;21310;-80
2022/11/10 09:53:22;;;;;;;27.93;11.22;;;;;;;23.07;44.39;101622.66;1791508;76;21107;-80
2022/11/10 09:55:49;;;;;;;24.52;10.60;;;;;;;23.01;44.31;101622.52;1755158;79;21318;-80
2022/11/10 09:58:15;;;;;;;28.20;11.00;;;;;;;22.97;44.27;101627.05;1734806;79;21093;-80
2022/11/10 10:00:45;;;;;;;23.85;11.05;;;;;;;22.94;44.22;101624.09;1694305;80;21318;-80
2022/11/10 10:03:16;;;;;;;23.85;10.95;;;;;;;22.91;44.08;101613.63;1813065;76;21112;-80
2022/11/10 10:06:11;;;;;;;20.08;10.93;;;;;;;22.87;43.93;101614.00;1746301;80;22121;-79
2022/11/10 10:09:04;;;;;;;20.60;9.73;;;;;;;22.84;43.92;101614.05;1820041;76;22085;-78
2022/11/10 10:11:54;;;;;;;19.98;9.88;;;;;;;22.81;43.98;101606.92;1817549;76;21090;-80
2022/11/10 10:14:31;;;;;;;20.40;9.10;;;;;;;22.76;44.09;101605.08;1816021;76;21141;-80
2022/11/10 10:17:15;;;;;;;21.87;9.58;;;;;;;22.73;44.22;101603.77;1814608;76;21042;-79
2022/11/10 10:20:07;;;;;;;21.40;9.68;;;;;;;22.72;44.31;101598.52;1817240;77;21112;-78
2022/11/10 10:23:04;;;;;;;16.87;8.95;;;;;;;22.67;44.37;101603.58;1783684;77;21024;-80
2022/11/10 10:25:37;;;;;;;22.52;8.95;;;;;;;22.63;44.49;101597.02;1774943;78;21220;-79
2022/11/10 10:28:29;;;;;;;23.32;9.90;;;;;;;22.61;44.58;101600.69;1787325;78;21050;-79
2022/11/10 10:31:19;;;;;;;18.42;8.88;;;;;;;22.60;44.70;101591.28;1826632;77;21539;-79
2022/11/10 10:33:45;;;;;;;18.35;9.18;;;;;;;22.59;44.73;101588.25;1808285;77;21567;-79
2022/11/10 10:36:26;;;;;;;19.35;9.40;;;;;;;22.57;44.81;101596.08;1804210;77;21223;-80
2022/11/10 10:39:09;;;;;;;16.35;8.68;;;;;;;22.56;44.87;101588.88;1817369;76;21386;-79
2022/11/10 10:41:35;;;;;;;23.27;8.83;;;;;;;22.54;44.92;101589.19;1779927;79;21592;-79
2022/11/10 10:44:16;;;;;;;16.07;9.00;;;;;;;22.51;44.98;101584.27;1750697;79;21049;-80
2022/11/10 10:46:50;;;;;;;15.98;8.23;;;;;;;22.51;45.04;101586.22;1825187;77;21092;-80
2022/11/10 10:49:28;;;;;;;14.60;8.78;;;;;;;22.49;45.12;101588.50;1820963;78;21296;-80
2022/11/10 10:52:11;;;;;;;32.75;9.28;;;;;;;22.48;45.14;101577.97;1819189;77;21070;-80
2022/11/10 10:54:38;;;;;;;19.48;8.65;;;;;;;22.49;45.12;101585.72;1824450;77;21230;-79
2022/11/10 10:57:27;;;;;;;30.82;9.58;;;;;;;22.48;45.08;101584.08;1788303;77;21230;-79
2022/11/10 10:59:53;;;;;;;20.92;8.85;;;;;;;22.47;45.01;101581.87;1799019;76;21115;-80
2022/11/10 11:02:29;;;;;;;28.90;9.20;;;;;;;22.45;44.94;101581.34;1755178;79;21572;-78
2022/11/10 11:05:16;;;;;;;34.48;10.00;;;;;;;22.41;44.89;101580.33;1788200;77;21072;-79
2022/11/10 11:08:08;;;;;;;21.77;9.00;;;;;;;22.38;44.94;101582.34;1792289;77;20937;-78
2022/11/10 11:10:36;;;;;;;20.00;9.15;;;;;;;22.35;44.96;101578.81;1758239;77;21121;-79
2022/11/10 11:13:23;;;;;;;21.65;8.78;;;;;;;22.32;45.05;101579.41;1799984;77;21120;-78
2022/11/10 11:16:07;;;;;;;16.02;8.10;;;;;;;22.31;45.12;101572.25;1788907;78;21275;-79
2022/11/10 11:18:34;;;;;;;16.10;8.00;;;;;;;22.28;45.21;101568.13;1786288;79;20970;-79
2022/11/10 11:21:20;;;;;;;15.70;8.03;;;;;;;;;;1793746;77;21100;-79
2022/11/10 11:24:24;;;;;;;16.30;7.97;;;;;;;22.28;45.33;101565.36;1792906;77;21380;-80
2022/11/10 11:27:14;;;;;;;16.85;7.80;;;;;;;22.27;45.40;101562.92;1779129;79;21130;-79
2022/11/10 11:29:55;;;;;;;16.73;8.25;;;;;;;22.26;45.44;101564.05;1788299;79;21201;-79
2022/11/10 11:33:07;;;;;;;24.02;8.43;;;;;;;22.24;45.46;101562.95;1794126;79;21048;-80
2022/11/10 11:36:18;;;;;;;21.27;8.33;;;;;;;22.24;45.47;101559.36;1788936;78;20958;-80
2022/11/10 11:38:56;;;;;;;18.05;8.20;;;;;;;22.22;45.43;101558.87;1789145;77;21508;-79
2022/11/10 11:41:37;;;;;;;22.02;8.28;;;;;;;22.21;45.47;101559.42;1790723;77;21535;-80
2022/11/10 11:44:48;;;;;;;16.02;8.48;;;;;;;22.19;45.46;101559.50;1790888;77;21162;-79
2022/11/10 11:48:05;;;;;;;18.30;9.40;;;;;;;22.17;45.50;101553.42;1780170;77;21195;-79
2022/11/10 11:50:52;;;;;;;13.45;7.75;;;;;;;22.16;45.51;101566.45;1792864;77;21825;-79
2022/11/10 11:53:43;;;;;;;16.32;8.33;;;;;;;22.15;45.47;101561.25;1790464;79;21732;-79